Latest Coastal Weather Observations for Hogan Island

IDV60701

Issued at 12:02 am EDT Tuesday 19 October 2021 (issued every 10 minutes, with the page automatically refreshed every 10 minutes)

About coastal observations | Map of coastal stations | Coastal observations for VIC | Marine services | Other Formats
Station Details ID: 200838 Name: HOGAN ISLAND Lat: -39.22 Lon: 146.98 Height: 116.0 m
Data from the previous 72 hours. | See also: Recent months at Hogan Island
Date/Time
EDT
Wind Sea
Height
m
Swell Vis
km
Cloud Weather Temp
°C
Press
MSL
hPa
Rain since
9am
mm
Dir  Spd
kts
Gust
kts
Height
m
Period
s
Dir
19/12:00am WSW 22 25 - - - - - - - 10.8 1016.2 0.0
 
Date/Time
EDT
Wind Sea
Height
m
Swell Vis
km
Cloud Weather Temp
°C
Press
MSL
hPa
Rain since
9am
mm
Dir  Spd
kts
Gust
kts
Height
m
Period
s
Dir
18/11:30pm WSW 23 27 - - - - - - - 11.0 1016.0 0.0
18/11:00pm WSW 23 27 - - - - - - - 11.2 1015.8 0.0
18/10:30pm WSW 21 25 - - - - - - - 11.4 1015.8 0.0
18/10:00pm W 22 27 - - - - - - - 11.4 1015.5 0.0
18/09:30pm W 21 25 - - - - - - - 11.2 1015.3 0.0
18/09:00pm W 25 28 - - - - - - - 11.2 1014.8 0.0
18/08:30pm WSW 24 28 - - - - - - - 11.2 1014.3 0.0
18/08:00pm W 22 26 - - - - - - - 11.0 1013.8 0.0
18/07:30pm W 21 25 - - - - - - - 11.1 1013.3 0.0
18/07:00pm WSW 25 30 - - - - - - - 11.1 1013.3 0.0
18/06:30pm WSW 17 21 - - - - - - - 11.4 1013.3 0.0
18/06:00pm WSW 20 23 - - - - - - - 11.5 1012.8 0.0
18/05:30pm WSW 25 29 - - - - - - - 12.0 1012.7 0.0
18/05:00pm WSW 25 28 - - - - - - - 12.5 1012.3 0.0
18/04:30pm WSW 22 25 - - - - - - - 13.0 1012.2 0.0
18/04:00pm WSW 19 23 - - - - - - - 13.1 1012.1 0.0
18/03:30pm W 21 25 - - - - - - - 13.3 1011.9 0.0
18/03:00pm W 23 25 - - - - - - - 13.7 1011.9 0.0
18/02:30pm W 20 24 - - - - - - - 14.4 1011.7 0.0
18/02:00pm W 16 19 - - - - - - - 16.9 1011.8 0.0
18/01:30pm WNW 12 13 - - - - - - - 14.1 1012.0 0.0
18/01:00pm NW 9 10 - - - - - - - 15.3 1011.9 0.0
18/12:30pm WNW 9 9 - - - - - - - 14.7 1011.8 0.0
18/12:00pm WNW 9 10 - - - - - - - 14.5 1012.1 0.0
18/11:30am NW 7 9 - - - - - - - 14.8 1012.3 0.0
18/11:00am NNW 10 11 - - - - - - - 14.1 1012.5 0.0
18/10:30am NNW 9 12 - - - - - - - 13.7 1012.4 0.0
18/10:00am N 9 12 - - - - - - - 14.0 1012.4 0.0
18/09:30am N 9 11 - - - - - - - 13.9 1012.5 0.0
18/09:00am NNE 10 13 - - - - - - - 13.1 1012.3 0.0
18/08:30am NNE 9 11 - - - - - - - 12.2 1012.3 0.0
18/08:00am NNE 10 12 - - - - - - - 11.6 1012.2 0.0
18/07:30am NNE 11 12 - - - - - - - 11.6 1012.1 0.0
18/07:00am N 9 11 - - - - - - - 11.3 1011.9 0.0
18/06:30am N 9 11 - - - - - - - 11.2 1011.8 0.0
18/06:00am N 10 12 - - - - - - - 11.1 1011.7 0.0
18/05:30am N 12 14 - - - - - - - 11.2 1011.7 0.0
18/05:00am N 11 14 - - - - - - - 11.2 1011.8 0.0
18/04:30am N 12 17 - - - - - - - 11.3 1011.8 0.0
18/04:00am N 12 16 - - - - - - - 11.2 1011.8 0.0
18/03:30am NNW 8 11 - - - - - - - 11.2 1011.9 0.0
18/03:00am NNW 13 15 - - - - - - - 11.6 1012.3 0.0
18/02:30am NNW 13 15 - - - - - - - 11.4 1012.6 0.0
18/02:00am NNW 13 16 - - - - - - - 11.4 1012.8 0.0
18/01:30am NNW 13 15 - - - - - - - 11.4 1013.2 0.0
18/01:00am NNW 9 13 - - - - - - - 11.3 1013.5 0.0
18/12:30am NW 11 15 - - - - - - - 11.4 1013.6 0.0
18/12:00am NW 12 14 - - - - - - - 11.4 1013.7 0.0
 
Date/Time
EDT
Wind Sea
Height
m
Swell Vis
km
Cloud Weather Temp
°C
Press
MSL
hPa
Rain since
9am
mm
Dir  Spd
kts
Gust
kts
Height
m
Period
s
Dir
17/11:30pm WNW 12 15 - - - - - - - 11.4 1013.7 0.0
17/11:00pm WNW 14 17 - - - - - - - 11.4 1013.7 0.0
17/10:30pm WNW 16 19 - - - - - - - 11.1 1013.6 0.0
17/10:00pm WNW 17 20 - - - - - - - 11.1 1013.5 0.0
17/09:30pm W 17 20 - - - - - - - 11.0 1013.5 0.0
17/09:00pm W 17 20 - - - - - - - 10.9 1013.3 0.0
17/08:30pm WSW 16 18 - - - - - - - 10.9 1012.8 0.0
17/08:00pm W 22 25 - - - - - - - 11.3 1012.3 0.0
17/07:30pm WSW 25 28 - - - - - - - 11.2 1011.8 0.0
17/07:00pm W 24 27 - - - - - - - 11.1 1011.9 0.0
17/06:30pm WSW 23 25 - - - - - - - 11.2 1011.7 0.0
17/06:00pm W 24 27 - - - - - - - 11.3 1011.8 0.0
17/05:30pm W 26 28 - - - - - - - 11.5 1011.5 0.0
17/05:00pm W 29 33 - - - - - - - 12.1 1011.5 0.0
17/04:30pm W 23 29 - - - - - - - 12.4 1011.8 0.0
17/04:00pm W 24 31 - - - - - - - 11.3 1011.8 0.0
17/03:30pm WNW 20 24 - - - - - - - 13.0 1011.9 0.0
17/03:00pm W 20 23 - - - - - - - 12.9 1012.1 0.0
17/02:30pm W 19 23 - - - - - - - 14.0 1012.2 0.0
17/02:00pm W 21 24 - - - - - - - 14.3 1012.2 0.0
17/01:30pm W 21 23 - - - - - - - 14.7 1012.2 0.0
17/01:00pm W 23 25 - - - - - - - 14.4 1012.2 0.0
17/12:30pm W 25 29 - - - - - - - 14.0 1012.2 0.0
17/12:00pm W 25 29 - - - - - - - 13.8 1012.4 0.0
17/11:30am W 27 30 - - - - - - - 13.4 1012.4 0.0
17/11:00am W 24 29 - - - - - - - 12.7 1012.8 0.0
17/10:30am W 27 31 - - - - - - - 13.1 1012.7 0.0
17/10:00am W 26 30 - - - - - - - 13.1 1012.7 0.0
17/09:30am W 24 28 - - - - - - - 12.0 1012.7 0.0
17/09:00am W 24 27 - - - - - - - 11.7 1012.5 0.0
17/08:30am WSW 24 27 - - - - - - - 11.4 1012.1 0.0
17/08:00am W 28 31 - - - - - - - 11.4 1011.5 0.0
17/07:30am W 25 29 - - - - - - - 11.0 1011.2 0.0
17/07:00am WSW 27 31 - - - - - - - 10.4 1010.8 0.0
17/06:30am WSW 29 34 - - - - - - - 10.3 1010.4 0.0
17/06:00am WSW 31 35 - - - - - - - 10.3 1010.1 0.0
17/05:30am W 31 38 - - - - - - - 10.4 1009.6 0.0
17/05:00am WSW 30 33 - - - - - - - 10.5 1009.6 0.0
17/04:30am WSW 27 31 - - - - - - - 10.5 1009.7 0.0
17/04:00am WSW 31 35 - - - - - - - 10.6 1009.3 0.0
17/03:30am WSW 32 36 - - - - - - - 10.5 1009.1 0.0
17/03:00am WSW 31 39 - - - - - - - 10.7 1009.0 0.0
17/02:30am WSW 32 38 - - - - - - - 10.5 1008.7 0.0
17/02:00am WSW 32 39 - - - - - - - 10.6 1008.8 0.0
17/01:30am WSW 34 39 - - - - - - - 10.5 1008.9 0.0
17/01:00am WSW 34 39 - - - - - - - 10.6 1009.1 0.0
17/12:30am WSW 36 41 - - - - - - - 10.7 1008.7 0.0
17/12:00am WSW 36 43 - - - - - - - 10.6 1008.8 0.0
 
Date/Time
EDT
Wind Sea
Height
m
Swell Vis
km
Cloud Weather Temp
°C
Press
MSL
hPa
Rain since
9am
mm
Dir  Spd
kts
Gust
kts
Height
m
Period
s
Dir
16/11:30pm WSW 42 47 - - - - - - - 10.9 1008.2 0.0
16/11:00pm W 42 48 - - - - - - - 10.8 1008.0 0.0
16/10:30pm WSW 43 49 - - - - - - - 10.9 1007.7 0.0
16/10:00pm WSW 44 49 - - - - - - - 10.9 1007.5 0.0
16/09:30pm W 42 50 - - - - - - - 10.9 1007.0 0.0
16/09:00pm WSW 40 48 - - - - - - - 11.1 1007.0 0.0
16/08:30pm W 42 48 - - - - - - - 11.1 1006.6 0.0
16/08:00pm W 41 49 - - - - - - - 11.1 1006.3 0.0
16/07:30pm W 43 49 - - - - - - - 11.1 1005.6 0.0
16/07:00pm W 41 47 - - - - - - - 11.5 1005.3 0.0
16/06:30pm W 40 48 - - - - - - - 11.7 1004.9 0.0
16/06:00pm W 40 47 - - - - - - - 12.1 1004.5 0.0
16/05:30pm W 45 51 - - - - - - - 12.4 1003.9 0.0
16/05:15pm W 42 52 - - - - - - - 12.6 1004.0 0.0
16/05:00pm W 44 53 - - - - - - - 12.8 1003.3 0.0
16/04:30pm W 45 55 - - - - - - - 12.9 1003.1 0.0
16/04:27pm W 46 56 - - - - - - - 13.2 1003.1 0.0
16/04:00pm W 45 53 - - - - - - - 13.1 1002.8 0.0
16/03:30pm W 43 51 - - - - - - - 13.2 1003.0 0.0
16/03:00pm W 42 48 - - - - - - - 13.3 1002.8 0.0
16/02:30pm W 42 49 - - - - - - - 13.5 1002.6 0.0
16/02:00pm WSW 43 49 - - - - - - - 13.8 1002.7 0.0
16/01:30pm WSW 42 48 - - - - - - - 13.7 1002.3 0.0
16/01:00pm WSW 44 51 - - - - - - - 13.2 1002.0 0.0
16/12:30pm WSW 41 48 - - - - - - - 13.3 1002.1 0.0
16/12:00pm WSW 39 45 - - - - - - - 13.0 1002.0 0.0
16/11:30am WSW 42 49 - - - - - - - 13.1 1001.7 0.0
16/11:00am WSW 37 44 - - - - - - - 13.0 1001.6 0.0
16/10:30am WSW 38 45 - - - - - - - 12.6 1001.2 0.0
16/10:00am WSW 42 49 - - - - - - - 11.7 1000.7 0.0
16/09:36am WSW 41 51 - - - - - - - 11.9 1000.3 0.0
16/09:30am WSW 42 51 - - - - - - - 11.4 1000.0 0.0
16/09:04am WSW 37 47 - - - - - - - 11.5 999.9 0.0
16/09:00am WSW 36 42 - - - - - - Recent precip. 11.6 999.9 6.0
16/08:30am WSW 37 45 - - - - - - - 11.6 999.4 6.0
16/08:26am WSW 35 45 - - - - - - - 11.5 999.3 6.0
16/08:00am WSW 37 44 - - - - - - - 11.3 999.0 5.4
16/07:30am SW 39 48 - - - - - - - 11.2 997.8 4.2
16/07:00am WSW 39 47 - - - - - - - 11.9 997.1 3.6
16/06:49am WSW 39 49 - - - - - - - 11.8 996.7 3.6
16/06:30am WSW 40 48 - - - - - - - 11.7 996.3 3.6
16/06:11am WSW 39 49 - - - - - - - 11.8 996.0 3.6
16/06:00am WSW 40 46 - - - - - - - 11.8 995.8 3.6
16/05:30am WSW 39 48 - - - - - - - 11.8 995.5 3.6
16/05:03am WSW 37 47 - - - - - - - 11.6 995.2 3.6
16/05:00am WSW 37 46 - - - - - - - 11.8 995.2 3.6
16/04:30am WSW 38 48 - - - - - - - 11.9 994.9 3.6
16/04:03am WSW 37 47 - - - - - - - 11.8 994.8 3.6
16/04:00am WSW 36 43 - - - - - - - 11.9 994.8 3.6
16/03:30am WSW 32 39 - - - - - - - 11.9 994.8 3.6
16/03:00am WSW 26 30 - - - - - - - 11.7 994.8 3.6
16/02:30am SW 27 32 - - - - - - - 11.2 994.9 3.6
16/02:00am SW 31 34 - - - - - - - 11.2 994.8 3.6
16/01:30am SW 30 35 - - - - - - - 11.4 994.4 3.6
16/01:00am SW 29 34 - - - - - - - 11.3 993.7 3.6
16/12:30am WSW 26 30 - - - - - - - 11.3 993.4 3.6

Other formats

Comma delimited format used in spreadsheet applications
http://www.bom.gov.au/fwo/IDV60701/IDV60701.94949.axf

JavaScript Object Notation format (JSON) in row-major order
http://www.bom.gov.au/fwo/IDV60701/IDV60701.94949.json

Data quality

Most of these data are generated automatically and are frequently updated. Quality checks on data are not normally performed. It is possible for incorrect values to appear. Refer to information at About Latest Weather Observations and please check the disclaimer before using these data.